createdAt,value
2022-08-26T00:01:29.173Z,101447.97
2022-08-26T00:03:56.732Z,101446.22
2022-08-26T00:06:23.539Z,101447.25
2022-08-26T00:08:50.170Z,101447.81
2022-08-26T00:11:26.379Z,101450.81
2022-08-26T00:13:54.650Z,101450.72
2022-08-26T00:16:21.699Z,101445.41
2022-08-26T00:18:48.320Z,101458.88
2022-08-26T00:21:16.253Z,101451.81
2022-08-26T00:23:42.968Z,101451.38
2022-08-26T00:26:09.683Z,101461.31
2022-08-26T00:28:37.985Z,101460.00
2022-08-26T00:31:07.134Z,101453.28
2022-08-26T00:33:33.832Z,101442.28
2022-08-26T00:36:01.679Z,101460.97
2022-08-26T00:38:29.075Z,101457.78
2022-08-26T00:40:56.803Z,101455.13
2022-08-26T00:43:25.073Z,101457.44
2022-08-26T00:45:56.889Z,101454.00
2022-08-26T00:48:26.167Z,101462.41
2022-08-26T00:51:01.919Z,101458.09
2022-08-26T00:53:30.856Z,101452.66
2022-08-26T00:56:23.190Z,101453.38
2022-08-26T00:58:50.872Z,101457.19
2022-08-26T01:01:18.179Z,101454.00
2022-08-26T01:03:45.458Z,101453.69
2022-08-26T01:06:13.130Z,101463.38
2022-08-26T01:08:40.400Z,101464.41
2022-08-26T01:11:08.114Z,101459.28
2022-08-26T01:13:36.464Z,101460.56
2022-08-26T01:16:04.547Z,101462.50
2022-08-26T01:18:31.590Z,101464.00
2022-08-26T01:21:14.332Z,101462.25
2022-08-26T01:23:45.100Z,101462.25
2022-08-26T01:26:31.354Z,101460.16
2022-08-26T01:29:02.941Z,101460.44
2022-08-26T01:31:35.059Z,101458.88
2022-08-26T01:34:05.897Z,101453.28
2022-08-26T01:36:32.785Z,101461.28
2022-08-26T01:38:59.443Z,101460.97
2022-08-26T01:41:27.161Z,101464.75
2022-08-26T01:43:56.931Z,101464.19
2022-08-26T01:46:26.402Z,101469.63
2022-08-26T01:48:55.149Z,101465.69
2022-08-26T01:51:23.503Z,101475.53
2022-08-26T01:53:50.115Z,101476.38
2022-08-26T01:56:16.693Z,101477.53
2022-08-26T01:58:46.633Z,101477.13
2022-08-26T02:01:13.627Z,101473.47
2022-08-26T02:03:52.502Z,101474.09
2022-08-26T02:06:19.756Z,101473.47
2022-08-26T02:08:53.172Z,101466.75
2022-08-26T02:11:19.960Z,101469.94
2022-08-26T02:13:52.637Z,101475.63
2022-08-26T02:16:22.932Z,101471.50
2022-08-26T02:18:50.666Z,101468.34
2022-08-26T02:21:19.956Z,101474.09
2022-08-26T02:23:46.537Z,101469.59
2022-08-26T02:26:19.483Z,101468.56
2022-08-26T02:29:08.832Z,101473.06
2022-08-26T02:31:35.643Z,101483.41
2022-08-26T02:34:15.108Z,101468.66
2022-08-26T02:36:41.859Z,101473.38
2022-08-26T02:39:08.964Z,101471.75
2022-08-26T02:41:35.740Z,101467.75
2022-08-26T02:44:11.711Z,101464.75
2022-08-26T02:46:39.212Z,101461.59
2022-08-26T02:49:06.973Z,101463.63
2022-08-26T02:51:33.723Z,101459.41
2022-08-26T02:54:00.313Z,101453.06
2022-08-26T02:56:28.122Z,101463.53
2022-08-26T02:58:54.940Z,101460.13
2022-08-26T03:01:24.132Z,101452.75
2022-08-26T03:03:50.920Z,101454.00
2022-08-26T03:06:18.197Z,101466.00
2022-08-26T03:08:44.872Z,101471.16
2022-08-26T03:11:11.679Z,101465.78
2022-08-26T03:13:38.975Z,101471.00
2022-08-26T03:16:06.454Z,101467.78
2022-08-26T03:18:33.034Z,101466.00
2022-08-26T03:21:05.725Z,101462.16
2022-08-26T03:23:33.531Z,101466.97
2022-08-26T03:26:01.457Z,101464.56
2022-08-26T03:28:28.051Z,101478.97
2022-08-26T03:30:55.004Z,101464.09
2022-08-26T03:33:22.334Z,101476.09
2022-08-26T03:35:50.717Z,101478.97
2022-08-26T03:38:18.004Z,101476.47
2022-08-26T03:40:44.642Z,101476.81
2022-08-26T03:43:12.376Z,101468.97
2022-08-26T03:45:39.502Z,101475.75
2022-08-26T03:48:07.769Z,101478.13
2022-08-26T03:50:35.931Z,101473.69
2022-08-26T03:53:03.660Z,101477.53
2022-08-26T03:55:32.455Z,101474.13
2022-08-26T03:58:00.769Z,101468.53
2022-08-26T04:00:27.414Z,101473.47
2022-08-26T04:02:54.020Z,101477.66
2022-08-26T04:05:22.764Z,101472.59
2022-08-26T04:07:50.006Z,101469.66
2022-08-26T04:10:20.047Z,101468.69
2022-08-26T04:12:47.033Z,101465.81
2022-08-26T04:15:16.420Z,101462.44
2022-08-26T04:17:44.712Z,101457.31
2022-08-26T04:20:13.971Z,101466.94
2022-08-26T04:22:43.049Z,101472.69
2022-08-26T04:25:09.920Z,101475.25
2022-08-26T04:27:36.555Z,101469.16
2022-08-26T04:30:04.630Z,101471.06
2022-08-26T04:32:31.194Z,101469.88
2022-08-26T04:34:57.819Z,101472.69
2022-08-26T04:37:25.151Z,101474.72
2022-08-26T04:39:54.605Z,101471.97
2022-08-26T04:42:23.305Z,101476.66
2022-08-26T04:44:52.784Z,101468.97
2022-08-26T04:47:19.439Z,101464.53
2022-08-26T04:49:46.018Z,101473.69
2022-08-26T04:52:12.675Z,101461.63
2022-08-26T04:54:39.328Z,101471.22
2022-08-26T04:57:08.610Z,101475.41
2022-08-26T04:59:39.071Z,101468.50
2022-08-26T05:02:06.829Z,101471.06
2022-08-26T05:04:33.803Z,101472.38
2022-08-26T05:07:02.930Z,101475.84
2022-08-26T05:09:29.704Z,101465.63
2022-08-26T05:11:57.146Z,101460.47
2022-08-26T05:14:23.947Z,101467.81
2022-08-26T05:16:50.723Z,101459.44
2022-08-26T05:19:19.187Z,101461.34
2022-08-26T05:21:47.298Z,101465.91
2022-08-26T05:24:14.289Z,101456.81
2022-08-26T05:26:41.192Z,101454.47
2022-08-26T05:29:08.069Z,101465.91
2022-08-26T05:31:35.593Z,101466.88
2022-08-26T05:34:04.610Z,101461.22
2022-08-26T05:36:34.384Z,101461.50
2022-08-26T05:39:02.670Z,101466.22
2022-08-26T05:41:34.324Z,101470.84
2022-08-26T05:44:06.060Z,101488.09
2022-08-26T05:46:33.582Z,101482.66
2022-08-26T05:49:01.081Z,101484.59
2022-08-26T05:51:27.685Z,101495.31
2022-08-26T05:53:57.111Z,101493.53
2022-08-26T05:56:26.150Z,101492.59
2022-08-26T05:58:53.719Z,101508.72
2022-08-26T06:01:26.118Z,101513.28
2022-08-26T06:03:55.903Z,101524.16
2022-08-26T06:06:34.619Z,101530.34
2022-08-26T06:09:05.061Z,101533.41
2022-08-26T06:11:32.612Z,101537.16
2022-08-26T06:14:03.756Z,101540.47
2022-08-26T06:16:33.503Z,101546.06
2022-08-26T06:19:02.770Z,101539.09
2022-08-26T06:21:35.048Z,101544.28
2022-08-26T06:24:27.255Z,101536.47
2022-08-26T06:26:56.484Z,101536.31
2022-08-26T06:29:25.859Z,101542.94
2022-08-26T06:31:53.752Z,101539.25
2022-08-26T06:34:20.376Z,101532.84
2022-08-26T06:36:47.415Z,101529.81
2022-08-26T06:39:16.446Z,101520.47
2022-08-26T06:41:44.907Z,101525.66
2022-08-26T06:44:13.003Z,101524.84
2022-08-26T06:46:40.087Z,101524.03
2022-08-26T06:49:07.007Z,101528.06
2022-08-26T06:51:36.356Z,101523.69
2022-08-26T06:54:04.731Z,101530.28
2022-08-26T06:56:36.752Z,101548.50
2022-08-26T06:59:04.141Z,101558.63
2022-08-26T07:01:37.900Z,101564.00
2022-08-26T07:04:10.487Z,101564.91
2022-08-26T07:06:39.852Z,101563.31
2022-08-26T07:09:09.854Z,101559.94
2022-08-26T07:11:38.183Z,101563.50
2022-08-26T07:14:05.944Z,101557.88
2022-08-26T07:16:33.259Z,101566.03
2022-08-26T07:18:59.852Z,101561.44
2022-08-26T07:21:29.990Z,101569.06
2022-08-26T07:24:01.209Z,101573.19
2022-08-26T07:26:30.260Z,101575.84
2022-08-26T07:28:58.041Z,101579.53
2022-08-26T07:31:27.525Z,101587.81
2022-08-26T07:33:54.251Z,101587.88
2022-08-26T07:36:21.887Z,101593.13
2022-08-26T07:38:48.602Z,101591.44
2022-08-26T07:41:17.455Z,101596.88
2022-08-26T07:43:44.054Z,101592.44
2022-08-26T07:46:16.484Z,101595.69
2022-08-26T07:48:46.003Z,101593.03
2022-08-26T07:51:15.012Z,101595.41
2022-08-26T07:53:47.961Z,101605.53
2022-08-26T07:56:18.959Z,101599.22
2022-08-26T07:58:48.970Z,101601.13
2022-08-26T08:01:18.148Z,101604.00
2022-08-26T08:03:45.408Z,101606.56
2022-08-26T08:06:12.144Z,101604.78
2022-08-26T08:08:41.411Z,101612.00
2022-08-26T08:11:08.024Z,101609.56
2022-08-26T08:13:37.437Z,101613.19
2022-08-26T08:16:05.059Z,101608.50
2022-08-26T08:18:31.871Z,101615.94
2022-08-26T08:21:21.225Z,101616.94
2022-08-26T08:23:47.141Z,101612.56
2022-08-26T08:26:14.149Z,101619.56
2022-08-26T08:28:40.899Z,101620.72
2022-08-26T08:31:08.254Z,101623.22
2022-08-26T08:33:35.301Z,101626.97
2022-08-26T08:36:02.015Z,101623.72
2022-08-26T08:38:28.771Z,101630.53
2022-08-26T08:40:55.379Z,101634.19
2022-08-26T08:43:37.514Z,101632.25
2022-08-26T08:46:09.233Z,101634.59
2022-08-26T08:48:39.294Z,101641.53
2022-08-26T08:51:30.387Z,101636.09
2022-08-26T08:53:57.032Z,101627.25
2022-08-26T08:56:27.827Z,101636.75
2022-08-26T08:59:34.399Z,101625.75
2022-08-26T09:02:30.643Z,101620.16
2022-08-26T09:05:15.723Z,101620.16
2022-08-26T09:08:11.373Z,101621.06
2022-08-26T09:10:45.322Z,101619.75
2022-08-26T09:13:16.776Z,101626.69
2022-08-26T09:16:08.341Z,101622.13
2022-08-26T09:18:57.599Z,101620.44
2022-08-26T09:21:25.472Z,101636.56
2022-08-26T09:23:55.464Z,101626.78
2022-08-26T09:26:29.281Z,101632.13
2022-08-26T09:29:08.974Z,101643.69
2022-08-26T09:31:37.048Z,101638.53
2022-08-26T09:34:27.448Z,101637.47
2022-08-26T09:36:58.685Z,101639.16
2022-08-26T09:39:28.073Z,101642.94
2022-08-26T09:42:16.831Z,101632.81
2022-08-26T09:44:57.133Z,101637.47
2022-08-26T09:47:34.620Z,101642.34
2022-08-26T09:50:12.566Z,101644.22
2022-08-26T09:52:40.663Z,101645.72
2022-08-26T09:55:09.371Z,101638.78
2022-08-26T09:57:45.704Z,101643.22
2022-08-26T10:00:23.619Z,101648.44
2022-08-26T10:02:52.740Z,101643.13
2022-08-26T10:05:31.002Z,101643.97
2022-08-26T10:07:58.617Z,101650.53
2022-08-26T10:10:38.209Z,101652.03
2022-08-26T10:13:16.716Z,101657.34
2022-08-26T10:16:07.092Z,101650.50
2022-08-26T10:18:40.802Z,101656.72
2022-08-26T10:21:22.770Z,101649.28
2022-08-26T10:23:52.186Z,101654.72
2022-08-26T10:26:21.612Z,101663.94
2022-08-26T10:28:53.048Z,101658.38
2022-08-26T10:31:27.865Z,101660.28
2022-08-26T10:33:58.788Z,101657.63
2022-08-26T10:37:13.397Z,101672.91
2022-08-26T10:39:57.200Z,101658.50
2022-08-26T10:42:48.939Z,101667.47
2022-08-26T10:45:22.236Z,101655.94
2022-08-26T10:47:54.557Z,101653.22
2022-08-26T10:50:30.706Z,101656.72
2022-08-26T10:53:07.619Z,101665.97
2022-08-26T10:55:41.136Z,101664.94
2022-08-26T10:58:26.090Z,101664.94
2022-08-26T11:01:22.640Z,101676.72
2022-08-26T11:04:25.130Z,101683.78
2022-08-26T11:07:29.166Z,101681.41
2022-08-26T11:10:20.282Z,101689.31
2022-08-26T11:12:52.591Z,101687.84
2022-08-26T11:15:19.950Z,101696.56
2022-08-26T11:17:51.371Z,101693.16
2022-08-26T11:20:31.070Z,101687.59
2022-08-26T11:23:20.325Z,101689.75
2022-08-26T11:25:57.490Z,101680.78
2022-08-26T11:28:33.736Z,101673.44
2022-08-26T11:31:00.362Z,101678.75
2022-08-26T11:33:50.986Z,101675.22
2022-08-26T11:36:49.090Z,101666.91
2022-08-26T11:39:15.583Z,101669.78
2022-08-26T11:41:52.698Z,101676.03
2022-08-26T11:44:24.055Z,101678.88
2022-08-26T11:46:59.620Z,101673.31
2022-08-26T11:49:28.301Z,101670.66
2022-08-26T11:52:20.743Z,101681.16
2022-08-26T11:55:06.541Z,101680.41
2022-08-26T11:57:34.742Z,101689.59
2022-08-26T12:00:03.672Z,101680.50
2022-08-26T12:02:30.245Z,101678.06
2022-08-26T12:04:57.022Z,101678.75
2022-08-26T12:07:27.049Z,101676.16
2022-08-26T12:10:02.261Z,101666.09
2022-08-26T12:12:34.938Z,101674.31
2022-08-26T12:15:12.576Z,101660.91
2022-08-26T12:17:40.732Z,101660.88
2022-08-26T12:20:45.949Z,101662.44
2022-08-26T12:23:40.144Z,101660.41
2022-08-26T12:26:25.099Z,101668.00
2022-08-26T12:29:19.699Z,101667.75
2022-08-26T12:31:47.851Z,101667.00
2022-08-26T12:34:18.253Z,101666.09
2022-08-26T12:36:54.941Z,101669.91
2022-08-26T12:39:36.259Z,101674.47
2022-08-26T12:42:03.923Z,101673.31
2022-08-26T12:44:53.250Z,101684.25
2022-08-26T12:47:44.005Z,101686.91
2022-08-26T12:50:30.396Z,101676.84
2022-08-26T12:53:03.368Z,101679.00
2022-08-26T12:55:32.903Z,101679.91
2022-08-26T12:58:22.918Z,101682.28
2022-08-26T13:00:53.838Z,101695.19
2022-08-26T13:03:32.594Z,101687.97
2022-08-26T13:06:22.274Z,101696.13
2022-08-26T13:09:00.740Z,101698.72
2022-08-26T13:11:33.428Z,101691.91
2022-08-26T13:14:24.111Z,101693.28
2022-08-26T13:16:51.450Z,101701.56
2022-08-26T13:19:23.440Z,101698.97
2022-08-26T13:21:55.384Z,101697.22
2022-08-26T13:24:28.003Z,101691.78
2022-08-26T13:26:54.623Z,101692.59
2022-08-26T13:29:21.271Z,101690.13
2022-08-26T13:31:48.052Z,101679.16
2022-08-26T13:34:20.753Z,101675.72
2022-08-26T13:36:49.565Z,101675.72
2022-08-26T13:39:17.408Z,101655.97
2022-08-26T13:41:44.100Z,101666.75
2022-08-26T13:44:11.033Z,101660.31
2022-08-26T13:46:38.207Z,101662.31
2022-08-26T13:49:05.012Z,101656.13
2022-08-26T13:51:32.047Z,101655.22
2022-08-26T13:53:59.019Z,101652.59
2022-08-26T13:56:27.741Z,101649.69
2022-08-26T13:58:54.460Z,101641.44
2022-08-26T14:01:21.076Z,101642.53
2022-08-26T14:03:47.888Z,101647.75
2022-08-26T14:06:15.019Z,101644.88
2022-08-26T14:08:42.085Z,101641.56
2022-08-26T14:11:09.109Z,101637.66
2022-08-26T14:13:36.219Z,101640.63
2022-08-26T14:16:07.080Z,101631.84
2022-08-26T14:18:41.085Z,101634.66
2022-08-26T14:21:09.258Z,101630.16
2022-08-26T14:23:35.867Z,101630.69
2022-08-26T14:26:04.050Z,101629.00
2022-08-26T14:28:30.705Z,101631.59
2022-08-26T14:30:58.291Z,101635.38
2022-08-26T14:33:27.973Z,101638.31
2022-08-26T14:36:14.682Z,101642.81
2022-08-26T14:38:41.510Z,101643.59
2022-08-26T14:41:08.119Z,101643.59
2022-08-26T14:43:34.740Z,101646.66
2022-08-26T14:46:01.368Z,101658.28
2022-08-26T14:48:27.987Z,101651.31
2022-08-26T14:50:54.596Z,101653.78
2022-08-26T14:53:39.598Z,101662.81
2022-08-26T14:56:06.211Z,101664.53
2022-08-26T14:58:35.006Z,101657.38
2022-08-26T15:01:04.427Z,101654.72
2022-08-26T15:03:31.196Z,101652.09
2022-08-26T15:05:58.033Z,101653.91
2022-08-26T15:08:25.451Z,101649.44
2022-08-26T15:10:52.085Z,101647.66
2022-08-26T15:13:19.145Z,101649.44
2022-08-26T15:15:46.570Z,101654.97
2022-08-26T15:18:13.276Z,101649.56
2022-08-26T15:20:39.961Z,101649.19
2022-08-26T15:23:07.446Z,101653.03
2022-08-26T15:25:34.240Z,101659.34
2022-08-26T15:28:00.929Z,101665.75
2022-08-26T15:30:27.628Z,101665.78
2022-08-26T15:32:54.221Z,101666.88
2022-08-26T15:35:20.829Z,101663.31
2022-08-26T15:37:47.482Z,101675.84
2022-08-26T15:40:14.248Z,101656.13
2022-08-26T15:42:40.956Z,101667.06
2022-08-26T15:45:07.904Z,101666.09
2022-08-26T15:47:55.409Z,101653.66
2022-08-26T15:50:21.422Z,101656.34
2022-08-26T15:52:48.103Z,101657.88
2022-08-26T15:55:14.764Z,101658.78
2022-08-26T15:57:41.383Z,101657.00
2022-08-26T16:00:10.066Z,101662.13
2022-08-26T16:02:36.684Z,101665.97
2022-08-26T16:05:03.312Z,101672.66
2022-08-26T16:07:31.780Z,101657.13
2022-08-26T16:09:58.517Z,101666.38
2022-08-26T16:12:25.146Z,101649.06
2022-08-26T16:14:52.712Z,101655.50
2022-08-26T16:17:20.015Z,101650.06
2022-08-26T16:19:46.783Z,101669.16
2022-08-26T16:22:13.381Z,101666.44
2022-08-26T16:24:39.990Z,101656.44
2022-08-26T16:27:06.728Z,101666.53
2022-08-26T16:29:33.362Z,101659.16
2022-08-26T16:32:00.035Z,101654.09
2022-08-26T16:34:26.856Z,101661.44
2022-08-26T16:36:53.532Z,101660.41
2022-08-26T16:39:20.159Z,101659.66
2022-08-26T16:41:46.797Z,101660.28
2022-08-26T16:44:13.448Z,101659.50
2022-08-26T16:46:41.256Z,101653.97
2022-08-26T16:49:08.069Z,101650.31
2022-08-26T16:51:38.316Z,101654.09
2022-08-26T16:54:07.053Z,101663.06
2022-08-26T16:56:34.521Z,101666.13
2022-08-26T16:59:03.214Z,101669.44
2022-08-26T17:01:30.175Z,101674.75
2022-08-26T17:03:57.176Z,101682.06
2022-08-26T17:06:23.841Z,101678.78
2022-08-26T17:08:50.455Z,101690.47
2022-08-26T17:11:17.235Z,101684.28
2022-08-26T17:13:43.912Z,101687.00
2022-08-26T17:16:14.180Z,101685.03
2022-08-26T17:18:41.344Z,101681.38
2022-08-26T17:21:11.271Z,101674.19
2022-08-26T17:23:38.815Z,101685.03
2022-08-26T17:26:05.767Z,101683.41
2022-08-26T17:28:32.731Z,101694.97
2022-08-26T17:30:59.782Z,101692.72
2022-08-26T17:33:26.624Z,101698.88
2022-08-26T17:35:53.807Z,101696.00
2022-08-26T17:38:21.233Z,101695.91
2022-08-26T17:40:47.861Z,101699.69
2022-08-26T17:43:14.492Z,101701.44
2022-08-26T17:45:41.487Z,101716.34
2022-08-26T17:48:08.456Z,101713.56
2022-08-26T17:50:35.677Z,101711.34
2022-08-26T17:53:02.254Z,101710.03
2022-08-26T17:55:29.141Z,101715.25
2022-08-26T17:57:55.707Z,101718.81
2022-08-26T18:00:26.574Z,101716.19
2022-08-26T18:02:56.498Z,101716.97
2022-08-26T18:05:23.298Z,101717.97
2022-08-26T18:07:51.465Z,101722.47
2022-08-26T18:10:19.706Z,101718.69
2022-08-26T18:12:46.779Z,101723.59
2022-08-26T18:15:15.204Z,101734.59
2022-08-26T18:17:41.939Z,101729.03
2022-08-26T18:20:15.641Z,101728.03
2022-08-26T18:22:42.391Z,101734.47
2022-08-26T18:25:09.629Z,101736.22
2022-08-26T18:27:37.422Z,101742.69
2022-08-26T18:30:06.000Z,101754.09
2022-08-26T18:32:32.581Z,101750.75
2022-08-26T18:34:59.582Z,101760.22
2022-08-26T18:37:29.418Z,101742.75
2022-08-26T18:39:59.440Z,101750.69
2022-08-26T18:42:26.560Z,101745.31
2022-08-26T18:44:53.483Z,101744.50
2022-08-26T18:47:20.143Z,101748.91
2022-08-26T18:49:47.308Z,101748.97
2022-08-26T18:52:13.969Z,101744.47
2022-08-26T18:54:40.951Z,101749.22
2022-08-26T18:57:07.517Z,101747.22
2022-08-26T18:59:34.093Z,101746.13
2022-08-26T19:02:00.798Z,101750.75
2022-08-26T19:04:27.595Z,101745.47
2022-08-26T19:06:54.277Z,101740.03
2022-08-26T19:09:21.056Z,101748.28
2022-08-26T19:11:49.632Z,101749.88
2022-08-26T19:14:17.008Z,101745.47
2022-08-26T19:16:47.868Z,101748.97
2022-08-26T19:19:15.241Z,101746.34
2022-08-26T19:21:41.899Z,101756.59
2022-08-26T19:24:15.390Z,101750.47
2022-08-26T19:26:43.958Z,101743.78
2022-08-26T19:29:11.453Z,101746.63
2022-08-26T19:31:38.044Z,101743.25
2022-08-26T19:34:05.368Z,101738.19
2022-08-26T19:36:32.792Z,101732.63
2022-08-26T19:39:00.253Z,101746.13
2022-08-26T19:41:36.925Z,101737.88
2022-08-26T19:44:07.610Z,101738.94
2022-08-26T19:46:34.569Z,101749.59
2022-08-26T19:49:01.181Z,101749.69
2022-08-26T19:51:29.747Z,101752.22
2022-08-26T19:53:57.647Z,101746.03
2022-08-26T19:56:24.540Z,101747.91
2022-08-26T19:58:51.352Z,101748.75
2022-08-26T20:01:18.756Z,101753.25
2022-08-26T20:03:46.171Z,101752.28
2022-08-26T20:06:14.568Z,101749.69
2022-08-26T20:08:41.801Z,101748.03
2022-08-26T20:11:12.203Z,101753.34
2022-08-26T20:13:39.786Z,101756.06
2022-08-26T20:16:06.895Z,101751.56
2022-08-26T20:18:53.056Z,101757.91
2022-08-26T20:21:29.270Z,101748.06
2022-08-26T20:24:00.495Z,101744.34
2022-08-26T20:26:28.649Z,101742.63
2022-08-26T20:28:55.663Z,101744.59
2022-08-26T20:31:22.354Z,101755.34
2022-08-26T20:33:50.576Z,101748.38
2022-08-26T20:36:20.251Z,101739.16
2022-08-26T20:38:47.639Z,101739.22
2022-08-26T20:41:14.840Z,101739.38
2022-08-26T20:43:42.853Z,101741.88
2022-08-26T20:46:18.810Z,101740.53
2022-08-26T20:48:46.707Z,101738.63
2022-08-26T20:51:13.441Z,101731.47
2022-08-26T20:53:40.055Z,101733.19
2022-08-26T20:56:09.032Z,101733.25
2022-08-26T20:58:36.180Z,101727.81
2022-08-26T21:01:07.305Z,101733.25
2022-08-26T21:03:35.302Z,101730.66
2022-08-26T21:06:01.919Z,101732.97
2022-08-26T21:08:28.519Z,101732.47
2022-08-26T21:10:55.137Z,101739.75
2022-08-26T21:13:22.845Z,101724.03
2022-08-26T21:15:49.443Z,101730.75
2022-08-26T21:18:16.141Z,101731.53
2022-08-26T21:20:42.822Z,101729.59
2022-08-26T21:23:09.457Z,101731.78
2022-08-26T21:25:36.057Z,101735.31
2022-08-26T21:28:02.832Z,101736.19
2022-08-26T21:30:29.531Z,101732.63
2022-08-26T21:32:56.162Z,101736.19
2022-08-26T21:35:23.012Z,101741.63
2022-08-26T21:37:50.223Z,101743.03
2022-08-26T21:40:17.074Z,101738.81
2022-08-26T21:42:43.810Z,101730.88
2022-08-26T21:45:10.814Z,101736.19
2022-08-26T21:47:37.471Z,101729.00
2022-08-26T21:50:04.573Z,101741.72
2022-08-26T21:52:31.306Z,101735.34
2022-08-26T21:54:59.736Z,101733.88
2022-08-26T21:57:27.947Z,101735.41
2022-08-26T21:59:54.867Z,101731.00
2022-08-26T22:02:22.593Z,101731.22
2022-08-26T22:04:49.666Z,101729.13
2022-08-26T22:07:18.309Z,101741.13
2022-08-26T22:09:44.915Z,101740.16
2022-08-26T22:12:12.409Z,101738.28
2022-08-26T22:14:39.793Z,101746.66
2022-08-26T22:17:06.742Z,101743.84
2022-08-26T22:19:34.080Z,101738.28
2022-08-26T22:22:13.063Z,101751.84
2022-08-26T22:24:40.032Z,101751.25
2022-08-26T22:27:06.674Z,101745.00
2022-08-26T22:29:33.407Z,101744.22
2022-08-26T22:32:01.038Z,101740.56
2022-08-26T22:34:28.196Z,101745.78
2022-08-26T22:36:54.894Z,101743.00
2022-08-26T22:39:25.280Z,101742.34
2022-08-26T22:41:52.872Z,101744.03
2022-08-26T22:44:22.144Z,101747.91
2022-08-26T22:46:49.760Z,101754.09
2022-08-26T22:49:16.627Z,101749.75
2022-08-26T22:51:44.652Z,101751.31
2022-08-26T22:54:11.636Z,101746.13
2022-08-26T22:56:38.493Z,101745.44
2022-08-26T22:59:07.850Z,101748.84
2022-08-26T23:01:39.737Z,101753.50
2022-08-26T23:04:07.183Z,101753.72
2022-08-26T23:06:38.118Z,101743.09
2022-08-26T23:09:06.139Z,101744.78
2022-08-26T23:11:33.039Z,101744.66
2022-08-26T23:14:02.255Z,101750.28
2022-08-26T23:16:39.484Z,101742.72
2022-08-26T23:19:08.182Z,101744.56
2022-08-26T23:21:34.965Z,101742.78
2022-08-26T23:24:02.375Z,101738.34
2022-08-26T23:26:28.989Z,101746.66
2022-08-26T23:28:55.760Z,101750.06
2022-08-26T23:31:22.459Z,101747.44
2022-08-26T23:34:07.633Z,101744.78
2022-08-26T23:36:34.963Z,101751.97
2022-08-26T23:39:02.104Z,101745.00
2022-08-26T23:41:28.705Z,101746.66
2022-08-26T23:43:55.349Z,101735.09
2022-08-26T23:46:22.196Z,101737.00
2022-08-26T23:48:48.819Z,101726.94
2022-08-26T23:51:33.844Z,101732.31
2022-08-26T23:54:00.489Z,101729.66
2022-08-26T23:56:27.128Z,101722.63
2022-08-26T23:58:54.423Z,101720.97
